Caergwrle, United Kingdom
Current Conditions -  °F | °C
As of 8:20 PM on Thursday 29 Jan 2015 (Local Time) from EGNR Reporting Station
Snow Showers Snow Showers  
Wind Chill: -1°   Ceiling: Unl
Heat Index:   Visibility: 6mi
Dew Point:   Wind: 18mph
Humidity: 81%   Direction: 290°WNW
Pressure: 28.85"   Gusts: NA
Location:  53.11°N, 3.04°W
Report Text: EGNR 292020Z 29016KT 9999 -SHSNRA SCT026 SCT040 04/01 Q0977 RESHSN
Loading
Personal Weather Stations






























Interactive Weather Map New forecast layout! Learn more

10-Day Weather Forecast

Advertisements
Track Severe Weather on mobile